sensor_id;sensor_type;location;lat;lon;timestamp;pressure;altitude;pressure_sealevel;temperature
61977;BMP280;45905;50.570;10.428;2023-08-20T00:01:45;98252.72;;;24.53
61977;BMP280;45905;50.570;10.428;2023-08-20T00:04:13;98251.41;;;24.51
61977;BMP280;45905;50.570;10.428;2023-08-20T00:06:43;98254.22;;;24.49
61977;BMP280;45905;50.570;10.428;2023-08-20T00:09:11;98247.13;;;24.45
61977;BMP280;45905;50.570;10.428;2023-08-20T00:11:38;98249.66;;;24.40
61977;BMP280;45905;50.570;10.428;2023-08-20T00:14:05;98261.09;;;24.44
61977;BMP280;45905;50.570;10.428;2023-08-20T00:16:33;98263.16;;;24.42
61977;BMP280;45905;50.570;10.428;2023-08-20T00:19:00;98261.59;;;24.41
61977;BMP280;45905;50.570;10.428;2023-08-20T00:21:28;98263.84;;;24.38
61977;BMP280;45905;50.570;10.428;2023-08-20T00:23:56;98264.84;;;24.37
61977;BMP280;45905;50.570;10.428;2023-08-20T00:26:23;98265.66;;;24.37
61977;BMP280;45905;50.570;10.428;2023-08-20T00:28:50;98268.69;;;24.34
61977;BMP280;45905;50.570;10.428;2023-08-20T00:31:18;98263.50;;;24.34
61977;BMP280;45905;50.570;10.428;2023-08-20T00:33:45;98269.72;;;24.33
61977;BMP280;45905;50.570;10.428;2023-08-20T00:36:31;98276.16;;;24.31
61977;BMP280;45905;50.570;10.428;2023-08-20T00:38:58;98273.78;;;24.29
61977;BMP280;45905;50.570;10.428;2023-08-20T00:41:25;98265.22;;;24.29
61977;BMP280;45905;50.570;10.428;2023-08-20T00:43:52;98265.22;;;24.29
61977;BMP280;45905;50.570;10.428;2023-08-20T00:46:19;98274.78;;;24.29
61977;BMP280;45905;50.570;10.428;2023-08-20T00:48:46;98266.69;;;24.25
61977;BMP280;45905;50.570;10.428;2023-08-20T00:51:14;98274.25;;;24.27
61977;BMP280;45905;50.570;10.428;2023-08-20T00:53:41;98269.53;;;24.24
61977;BMP280;45905;50.570;10.428;2023-08-20T00:56:08;98273.16;;;24.23
61977;BMP280;45905;50.570;10.428;2023-08-20T00:58:37;98274.16;;;24.22
61977;BMP280;45905;50.570;10.428;2023-08-20T01:01:04;98261.66;;;24.19
61977;BMP280;45905;50.570;10.428;2023-08-20T01:03:31;98263.94;;;24.15
61977;BMP280;45905;50.570;10.428;2023-08-20T01:08:53;98262.25;;;24.10
61977;BMP280;45905;50.570;10.428;2023-08-20T01:11:37;98263.97;;;24.04
61977;BMP280;45905;50.570;10.428;2023-08-20T01:14:17;98266.00;;;24.02
61977;BMP280;45905;50.570;10.428;2023-08-20T01:16:46;98260.81;;;24.02
61977;BMP280;45905;50.570;10.428;2023-08-20T01:19:19;98275.56;;;24.02
61977;BMP280;45905;50.570;10.428;2023-08-20T01:28:30;98267.78;;;23.90
61977;BMP280;45905;50.570;10.428;2023-08-20T01:31:00;98259.50;;;23.89
61977;BMP280;45905;50.570;10.428;2023-08-20T01:33:30;98268.50;;;23.86
61977;BMP280;45905;50.570;10.428;2023-08-20T01:35:58;98271.53;;;23.83
61977;BMP280;45905;50.570;10.428;2023-08-20T01:38:25;98270.75;;;23.83
61977;BMP280;45905;50.570;10.428;2023-08-20T01:40:52;98281.56;;;23.80
61977;BMP280;45905;50.570;10.428;2023-08-20T01:43:20;98286.97;;;23.78
61977;BMP280;45905;50.570;10.428;2023-08-20T01:45:47;98280.44;;;23.76
61977;BMP280;45905;50.570;10.428;2023-08-20T01:48:14;98283.25;;;23.74
61977;BMP280;45905;50.570;10.428;2023-08-20T01:50:42;98281.34;;;23.70
61977;BMP280;45905;50.570;10.428;2023-08-20T01:53:09;98281.78;;;23.67
61977;BMP280;45905;50.570;10.428;2023-08-20T01:55:36;98289.47;;;23.62
61977;BMP280;45905;50.570;10.428;2023-08-20T01:58:04;98293.50;;;23.58
61977;BMP280;45905;50.570;10.428;2023-08-20T02:00:31;98289.25;;;23.52
61977;BMP280;45905;50.570;10.428;2023-08-20T02:03:00;98300.59;;;23.52
61977;BMP280;45905;50.570;10.428;2023-08-20T02:05:28;98295.66;;;23.50
61977;BMP280;45905;50.570;10.428;2023-08-20T02:07:55;98296.88;;;23.48
61977;BMP280;45905;50.570;10.428;2023-08-20T02:10:22;98294.50;;;23.46
61977;BMP280;45905;50.570;10.428;2023-08-20T02:12:50;98302.53;;;23.45
61977;BMP280;45905;50.570;10.428;2023-08-20T02:15:17;98298.22;;;23.39
61977;BMP280;45905;50.570;10.428;2023-08-20T02:17:44;98298.22;;;23.39
61977;BMP280;45905;50.570;10.428;2023-08-20T02:20:12;98302.84;;;23.37
61977;BMP280;45905;50.570;10.428;2023-08-20T02:22:39;98309.47;;;23.33
61977;BMP280;45905;50.570;10.428;2023-08-20T02:25:06;98310.78;;;23.24
61977;BMP280;45905;50.570;10.428;2023-08-20T02:27:34;98311.78;;;23.23
61977;BMP280;45905;50.570;10.428;2023-08-20T02:30:02;98311.22;;;23.21
61977;BMP280;45905;50.570;10.428;2023-08-20T02:32:29;98320.44;;;23.17
61977;BMP280;45905;50.570;10.428;2023-08-20T02:34:59;98312.56;;;23.13
61977;BMP280;45905;50.570;10.428;2023-08-20T02:37:26;98308.31;;;23.07
61977;BMP280;45905;50.570;10.428;2023-08-20T02:39:53;98311.44;;;23.09
61977;BMP280;45905;50.570;10.428;2023-08-20T02:42:20;98313.03;;;23.10
61977;BMP280;45905;50.570;10.428;2023-08-20T02:44:48;98309.88;;;23.08
61977;BMP280;45905;50.570;10.428;2023-08-20T02:47:15;98312.47;;;23.08
61977;BMP280;45905;50.570;10.428;2023-08-20T02:49:42;98320.44;;;23.06
61977;BMP280;45905;50.570;10.428;2023-08-20T02:52:11;98328.41;;;23.05
61977;BMP280;45905;50.570;10.428;2023-08-20T02:54:38;98320.84;;;23.03
61977;BMP280;45905;50.570;10.428;2023-08-20T02:57:05;98315.38;;;23.00
61977;BMP280;45905;50.570;10.428;2023-08-20T02:59:32;98314.59;;;22.99
61977;BMP280;45905;50.570;10.428;2023-08-20T03:02:01;98315.81;;;22.97
61977;BMP280;45905;50.570;10.428;2023-08-20T03:04:30;98306.94;;;22.93
61977;BMP280;45905;50.570;10.428;2023-08-20T03:06:57;98305.78;;;22.89
61977;BMP280;45905;50.570;10.428;2023-08-20T03:09:25;98305.69;;;22.84
61977;BMP280;45905;50.570;10.428;2023-08-20T03:11:52;98309.28;;;22.83
61977;BMP280;45905;50.570;10.428;2023-08-20T03:14:19;98303.84;;;22.85
61977;BMP280;45905;50.570;10.428;2023-08-20T03:16:48;98312.28;;;22.80
61977;BMP280;45905;50.570;10.428;2023-08-20T03:19:15;98303.53;;;22.81
61977;BMP280;45905;50.570;10.428;2023-08-20T03:21:43;98314.28;;;22.78
61977;BMP280;45905;50.570;10.428;2023-08-20T03:24:10;98313.72;;;22.76
61977;BMP280;45905;50.570;10.428;2023-08-20T03:26:38;98313.19;;;22.75
61977;BMP280;45905;50.570;10.428;2023-08-20T03:29:05;98309.59;;;22.76
61977;BMP280;45905;50.570;10.428;2023-08-20T03:31:32;98309.44;;;22.71
61977;BMP280;45905;50.570;10.428;2023-08-20T03:34:00;98304.28;;;22.71
61977;BMP280;45905;50.570;10.428;2023-08-20T03:36:27;98299.69;;;22.73
61977;BMP280;45905;50.570;10.428;2023-08-20T03:38:55;98297.69;;;22.75
61977;BMP280;45905;50.570;10.428;2023-08-20T03:41:23;98298.91;;;22.72
61977;BMP280;45905;50.570;10.428;2023-08-20T03:43:50;98295.53;;;22.72
61977;BMP280;45905;50.570;10.428;2023-08-20T03:46:18;98304.84;;;22.73
61977;BMP280;45905;50.570;10.428;2023-08-20T03:48:45;98304.06;;;22.72
61977;BMP280;45905;50.570;10.428;2023-08-20T03:51:12;98315.03;;;22.68
61977;BMP280;45905;50.570;10.428;2023-08-20T03:53:41;98315.94;;;22.62
61977;BMP280;45905;50.570;10.428;2023-08-20T03:56:08;98318.94;;;22.59
61977;BMP280;45905;50.570;10.428;2023-08-20T03:58:35;98312.63;;;22.55
61977;BMP280;45905;50.570;10.428;2023-08-20T04:01:02;98311.06;;;22.54
61977;BMP280;45905;50.570;10.428;2023-08-20T04:03:30;98304.31;;;22.53
61977;BMP280;45905;50.570;10.428;2023-08-20T04:05:59;98306.31;;;22.51
61977;BMP280;45905;50.570;10.428;2023-08-20T04:08:27;98302.41;;;22.49
61977;BMP280;45905;50.570;10.428;2023-08-20T04:10:54;98308.78;;;22.46
61977;BMP280;45905;50.570;10.428;2023-08-20T04:13:22;98300.47;;;22.44
61977;BMP280;45905;50.570;10.428;2023-08-20T04:15:49;98306.06;;;22.41
61977;BMP280;45905;50.570;10.428;2023-08-20T04:18:16;98309.66;;;22.40
61977;BMP280;45905;50.570;10.428;2023-08-20T04:20:44;98317.25;;;22.36
61977;BMP280;45905;50.570;10.428;2023-08-20T04:23:11;98321.84;;;22.34
61977;BMP280;45905;50.570;10.428;2023-08-20T04:25:38;98319.25;;;22.34
61977;BMP280;45905;50.570;10.428;2023-08-20T04:28:06;98322.84;;;22.33
61977;BMP280;45905;50.570;10.428;2023-08-20T04:30:35;98322.50;;;22.29
61977;BMP280;45905;50.570;10.428;2023-08-20T04:33:05;98324.72;;;22.26
61977;BMP280;45905;50.570;10.428;2023-08-20T04:35:33;98319.00;;;22.24
61977;BMP280;45905;50.570;10.428;2023-08-20T04:38:02;98324.59;;;22.21
61977;BMP280;45905;50.570;10.428;2023-08-20T04:40:29;98324.81;;;22.19
61977;BMP280;45905;50.570;10.428;2023-08-20T04:42:57;98321.22;;;22.20
61977;BMP280;45905;50.570;10.428;2023-08-20T04:45:24;98313.13;;;22.17
61977;BMP280;45905;50.570;10.428;2023-08-20T04:47:51;98313.13;;;22.17
61977;BMP280;45905;50.570;10.428;2023-08-20T04:50:20;98314.38;;;22.15
61977;BMP280;45905;50.570;10.428;2023-08-20T04:52:48;98318.94;;;22.13
61977;BMP280;45905;50.570;10.428;2023-08-20T04:55:15;98319.75;;;22.13
61977;BMP280;45905;50.570;10.428;2023-08-20T04:57:43;98317.16;;;22.13
61977;BMP280;45905;50.570;10.428;2023-08-20T05:00:11;98319.75;;;22.13
61977;BMP280;45905;50.570;10.428;2023-08-20T05:02:49;98341.97;;;22.14
61977;BMP280;45905;50.570;10.428;2023-08-20T05:05:18;98338.81;;;22.12
61977;BMP280;45905;50.570;10.428;2023-08-20T05:07:46;98342.97;;;22.13
61977;BMP280;45905;50.570;10.428;2023-08-20T05:10:13;98330.06;;;22.13
61977;BMP280;45905;50.570;10.428;2023-08-20T05:12:41;98339.81;;;22.11
61977;BMP280;45905;50.570;10.428;2023-08-20T05:15:08;98341.59;;;22.11
61977;BMP280;45905;50.570;10.428;2023-08-20T05:17:37;98342.38;;;22.11
61977;BMP280;45905;50.570;10.428;2023-08-20T05:20:05;98335.06;;;22.08
61977;BMP280;45905;50.570;10.428;2023-08-20T05:22:32;98333.94;;;22.04
61977;BMP280;45905;50.570;10.428;2023-08-20T05:25:00;98337.16;;;22.00
61977;BMP280;45905;50.570;10.428;2023-08-20T05:27:27;98336.22;;;21.95
61977;BMP280;45905;50.570;10.428;2023-08-20T05:29:56;98339.59;;;21.95
61977;BMP280;45905;50.570;10.428;2023-08-20T05:32:23;98338.44;;;21.91
61977;BMP280;45905;50.570;10.428;2023-08-20T05:34:52;98348.75;;;21.91
61977;BMP280;45905;50.570;10.428;2023-08-20T05:37:19;98352.13;;;21.92
61977;BMP280;45905;50.570;10.428;2023-08-20T05:39:47;98356.28;;;21.93
61977;BMP280;45905;50.570;10.428;2023-08-20T05:42:15;98357.00;;;21.99
61977;BMP280;45905;50.570;10.428;2023-08-20T05:44:50;98356.56;;;22.02
61977;BMP280;45905;50.570;10.428;2023-08-20T05:47:23;98362.09;;;22.06
61977;BMP280;45905;50.570;10.428;2023-08-20T05:49:51;98361.53;;;22.04
61977;BMP280;45905;50.570;10.428;2023-08-20T05:52:18;98372.19;;;22.07
61977;BMP280;45905;50.570;10.428;2023-08-20T05:54:46;98366.75;;;22.15
61977;BMP280;45905;50.570;10.428;2023-08-20T05:57:14;98381.38;;;22.21
61977;BMP280;45905;50.570;10.428;2023-08-20T05:59:43;98373.75;;;22.26
61977;BMP280;45905;50.570;10.428;2023-08-20T06:02:16;98373.13;;;22.30
61977;BMP280;45905;50.570;10.428;2023-08-20T06:04:45;98377.28;;;22.31
61977;BMP280;45905;50.570;10.428;2023-08-20T06:07:12;98376.06;;;22.34
61977;BMP280;45905;50.570;10.428;2023-08-20T06:09:39;98379.22;;;22.36
61977;BMP280;45905;50.570;10.428;2023-08-20T06:12:07;98371.84;;;22.39
61977;BMP280;45905;50.570;10.428;2023-08-20T06:14:34;98371.63;;;22.40
61977;BMP280;45905;50.570;10.428;2023-08-20T06:17:01;98375.31;;;22.44
61977;BMP280;45905;50.570;10.428;2023-08-20T06:19:29;98376.91;;;22.45
61977;BMP280;45905;50.570;10.428;2023-08-20T06:21:57;98380.50;;;22.44
61977;BMP280;45905;50.570;10.428;2023-08-20T06:24:25;98380.28;;;22.46
61977;BMP280;45905;50.570;10.428;2023-08-20T06:26:52;98383.44;;;22.48
61977;BMP280;45905;50.570;10.428;2023-08-20T06:29:19;98376.69;;;22.47
61977;BMP280;45905;50.570;10.428;2023-08-20T06:31:49;98387.94;;;22.52
61977;BMP280;45905;50.570;10.428;2023-08-20T06:34:17;98381.56;;;22.55
61977;BMP280;45905;50.570;10.428;2023-08-20T06:36:44;98382.50;;;22.60
61977;BMP280;45905;50.570;10.428;2023-08-20T06:39:12;98374.91;;;22.65
61977;BMP280;45905;50.570;10.428;2023-08-20T06:41:39;98370.31;;;22.67
61977;BMP280;45905;50.570;10.428;2023-08-20T06:44:18;98374.81;;;22.71
61977;BMP280;45905;50.570;10.428;2023-08-20T06:46:45;98374.81;;;22.71
61977;BMP280;45905;50.570;10.428;2023-08-20T06:49:12;98371.59;;;22.76
61977;BMP280;45905;50.570;10.428;2023-08-20T06:51:39;98377.44;;;22.82
61977;BMP280;45905;50.570;10.428;2023-08-20T06:54:06;98379.22;;;22.82
61977;BMP280;45905;50.570;10.428;2023-08-20T06:56:34;98377.56;;;22.87
61977;BMP280;45905;50.570;10.428;2023-08-20T06:59:01;98387.78;;;22.94
61977;BMP280;45905;50.570;10.428;2023-08-20T07:01:30;98392.31;;;22.98
61977;BMP280;45905;50.570;10.428;2023-08-20T07:03:57;98399.16;;;23.04
61977;BMP280;45905;50.570;10.428;2023-08-20T07:06:26;98398.53;;;23.08
61977;BMP280;45905;50.570;10.428;2023-08-20T07:08:53;98400.44;;;23.13
61977;BMP280;45905;50.570;10.428;2023-08-20T07:11:21;98399.00;;;23.16
61977;BMP280;45905;50.570;10.428;2023-08-20T07:13:48;98411.03;;;23.22
61977;BMP280;45905;50.570;10.428;2023-08-20T07:16:15;98406.00;;;23.27
61977;BMP280;45905;50.570;10.428;2023-08-20T07:18:42;98404.56;;;23.31
61977;BMP280;45905;50.570;10.428;2023-08-20T07:21:09;98409.88;;;23.36
61977;BMP280;45905;50.570;10.428;2023-08-20T07:23:37;98412.56;;;23.41
61977;BMP280;45905;50.570;10.428;2023-08-20T07:26:10;98426.63;;;23.45
61977;BMP280;45905;50.570;10.428;2023-08-20T07:28:40;98420.00;;;23.49
61977;BMP280;45905;50.570;10.428;2023-08-20T07:31:31;98432.03;;;23.54
61977;BMP280;45905;50.570;10.428;2023-08-20T07:34:00;98422.03;;;23.58
61977;BMP280;45905;50.570;10.428;2023-08-20T07:36:30;98420.81;;;23.60
61977;BMP280;45905;50.570;10.428;2023-08-20T07:38:59;98428.22;;;23.68
61977;BMP280;45905;50.570;10.428;2023-08-20T07:41:28;98430.91;;;23.73
61977;BMP280;45905;50.570;10.428;2023-08-20T07:43:56;98427.09;;;23.75
61977;BMP280;45905;50.570;10.428;2023-08-20T07:46:23;98422.06;;;23.80
61977;BMP280;45905;50.570;10.428;2023-08-20T07:48:50;98422.94;;;23.86
61977;BMP280;45905;50.570;10.428;2023-08-20T07:51:17;98428.22;;;23.90
61977;BMP280;45905;50.570;10.428;2023-08-20T07:53:44;98430.16;;;23.95
61977;BMP280;45905;50.570;10.428;2023-08-20T07:56:11;98426.91;;;23.99
61977;BMP280;45905;50.570;10.428;2023-08-20T07:58:39;98417.69;;;24.03
61977;BMP280;45905;50.570;10.428;2023-08-20T08:01:06;98425.53;;;24.08
61977;BMP280;45905;50.570;10.428;2023-08-20T08:03:33;98415.31;;;24.13
61977;BMP280;45905;50.570;10.428;2023-08-20T08:06:01;98418.00;;;24.18
61977;BMP280;45905;50.570;10.428;2023-08-20T08:08:28;98417.31;;;24.22
61977;BMP280;45905;50.570;10.428;2023-08-20T08:10:55;98415.63;;;24.28
61977;BMP280;45905;50.570;10.428;2023-08-20T08:13:23;98409.56;;;24.33
61977;BMP280;45905;50.570;10.428;2023-08-20T08:15:51;98411.66;;;24.36
61977;BMP280;45905;50.570;10.428;2023-08-20T08:18:21;98413.34;;;24.42
61977;BMP280;45905;50.570;10.428;2023-08-20T08:20:49;98417.84;;;24.47
61977;BMP280;45905;50.570;10.428;2023-08-20T08:23:16;98417.69;;;24.53
61977;BMP280;45905;50.570;10.428;2023-08-20T08:25:43;98427.16;;;24.59
61977;BMP280;45905;50.570;10.428;2023-08-20T08:28:11;98420.06;;;24.66
61977;BMP280;45905;50.570;10.428;2023-08-20T08:30:38;98420.16;;;24.70
61977;BMP280;45905;50.570;10.428;2023-08-20T08:33:07;98412.25;;;24.77
61977;BMP280;45905;50.570;10.428;2023-08-20T08:35:34;98415.28;;;24.85
61977;BMP280;45905;50.570;10.428;2023-08-20T08:38:01;98396.41;;;24.89
61977;BMP280;45905;50.570;10.428;2023-08-20T08:40:30;98396.75;;;24.93
61977;BMP280;45905;50.570;10.428;2023-08-20T08:42:58;98404.16;;;25.01
61977;BMP280;45905;50.570;10.428;2023-08-20T08:45:26;98408.41;;;25.06
61977;BMP280;45905;50.570;10.428;2023-08-20T08:47:54;98410.16;;;25.17
61977;BMP280;45905;50.570;10.428;2023-08-20T08:50:22;98408.19;;;25.24
61977;BMP280;45905;50.570;10.428;2023-08-20T08:52:51;98402.34;;;25.28
61977;BMP280;45905;50.570;10.428;2023-08-20T08:55:21;98395.66;;;25.32
61977;BMP280;45905;50.570;10.428;2023-08-20T08:57:49;98400.16;;;25.37
61977;BMP280;45905;50.570;10.428;2023-08-20T09:00:16;98400.78;;;25.44
61977;BMP280;45905;50.570;10.428;2023-08-20T09:02:44;98384.25;;;25.49
61977;BMP280;45905;50.570;10.428;2023-08-20T09:05:13;98391.13;;;25.55
61977;BMP280;45905;50.570;10.428;2023-08-20T09:07:43;98383.94;;;25.62
61977;BMP280;45905;50.570;10.428;2023-08-20T09:10:17;98383.00;;;25.68
61977;BMP280;45905;50.570;10.428;2023-08-20T09:12:47;98381.56;;;25.77
61977;BMP280;45905;50.570;10.428;2023-08-20T09:15:15;98386.91;;;25.86
61977;BMP280;45905;50.570;10.428;2023-08-20T09:17:42;98388.09;;;25.95
61977;BMP280;45905;50.570;10.428;2023-08-20T09:20:10;98381.69;;;26.02
61977;BMP280;45905;50.570;10.428;2023-08-20T09:22:37;98389.38;;;26.14
61977;BMP280;45905;50.570;10.428;2023-08-20T09:25:05;98386.38;;;26.22
61977;BMP280;45905;50.570;10.428;2023-08-20T09:27:39;98385.13;;;26.24
61977;BMP280;45905;50.570;10.428;2023-08-20T09:30:10;98388.00;;;26.27
61977;BMP280;45905;50.570;10.428;2023-08-20T09:32:44;98383.66;;;26.33
61977;BMP280;45905;50.570;10.428;2023-08-20T09:35:18;98387.09;;;26.38
61977;BMP280;45905;50.570;10.428;2023-08-20T09:37:46;98383.00;;;26.42
61977;BMP280;45905;50.570;10.428;2023-08-20T09:40:13;98370.53;;;26.44
61977;BMP280;45905;50.570;10.428;2023-08-20T09:42:42;98377.06;;;26.46
61977;BMP280;45905;50.570;10.428;2023-08-20T09:45:10;98375.09;;;26.53
61977;BMP280;45905;50.570;10.428;2023-08-20T09:47:40;98367.59;;;26.57
61977;BMP280;45905;50.570;10.428;2023-08-20T09:50:11;98367.66;;;26.61
61977;BMP280;45905;50.570;10.428;2023-08-20T09:52:54;98368.19;;;26.63
61977;BMP280;45905;50.570;10.428;2023-08-20T09:55:28;98368.75;;;26.65
61977;BMP280;45905;50.570;10.428;2023-08-20T09:57:57;98369.84;;;26.69
61977;BMP280;45905;50.570;10.428;2023-08-20T10:00:25;98373.50;;;26.73
61977;BMP280;45905;50.570;10.428;2023-08-20T10:02:53;98374.09;;;26.80
61977;BMP280;45905;50.570;10.428;2023-08-20T10:05:22;98375.72;;;26.86
61977;BMP280;45905;50.570;10.428;2023-08-20T10:07:50;98372.09;;;26.87
61977;BMP280;45905;50.570;10.428;2023-08-20T10:10:18;98364.81;;;26.89
61977;BMP280;45905;50.570;10.428;2023-08-20T10:12:45;98371.66;;;26.95
61977;BMP280;45905;50.570;10.428;2023-08-20T10:15:14;98378.66;;;26.94
61977;BMP280;45905;50.570;10.428;2023-08-20T10:17:44;98375.28;;;26.94
61977;BMP280;45905;50.570;10.428;2023-08-20T10:20:14;98356.09;;;26.99
61977;BMP280;45905;50.570;10.428;2023-08-20T10:22:46;98367.69;;;27.13
61977;BMP280;45905;50.570;10.428;2023-08-20T10:25:24;98363.41;;;27.28
61977;BMP280;45905;50.570;10.428;2023-08-20T10:28:05;98364.78;;;27.40
61977;BMP280;45905;50.570;10.428;2023-08-20T10:30:37;98364.38;;;27.53
61977;BMP280;45905;50.570;10.428;2023-08-20T10:33:04;98364.44;;;27.63
61977;BMP280;45905;50.570;10.428;2023-08-20T10:38:17;98371.94;;;27.90
61977;BMP280;45905;50.570;10.428;2023-08-20T10:40:58;98360.78;;;27.99
61977;BMP280;45905;50.570;10.428;2023-08-20T10:46:23;98346.56;;;28.16
61977;BMP280;45905;50.570;10.428;2023-08-20T10:48:58;98347.94;;;28.34
61977;BMP280;45905;50.570;10.428;2023-08-20T10:51:35;98337.81;;;28.47
61977;BMP280;45905;50.570;10.428;2023-08-20T10:54:07;98342.56;;;28.59
61977;BMP280;45905;50.570;10.428;2023-08-20T10:56:48;98342.56;;;28.64
61977;BMP280;45905;50.570;10.428;2023-08-20T10:59:26;98337.88;;;28.66
61977;BMP280;45905;50.570;10.428;2023-08-20T11:01:58;98343.13;;;28.71
61977;BMP280;45905;50.570;10.428;2023-08-20T11:04:32;98338.44;;;28.78
61977;BMP280;45905;50.570;10.428;2023-08-20T11:07:00;98335.88;;;28.88
61977;BMP280;45905;50.570;10.428;2023-08-20T11:09:30;98339.00;;;28.99
61977;BMP280;45905;50.570;10.428;2023-08-20T11:11:58;98332.75;;;29.05
61977;BMP280;45905;50.570;10.428;2023-08-20T11:14:26;98335.38;;;29.20
61977;BMP280;45905;50.570;10.428;2023-08-20T11:16:53;98333.78;;;29.29
61977;BMP280;45905;50.570;10.428;2023-08-20T11:19:23;98332.25;;;29.32
61977;BMP280;45905;50.570;10.428;2023-08-20T11:21:51;98330.38;;;29.33
61977;BMP280;45905;50.570;10.428;2023-08-20T11:24:19;98332.78;;;29.39
61977;BMP280;45905;50.570;10.428;2023-08-20T11:26:48;98331.97;;;29.53
61977;BMP280;45905;50.570;10.428;2023-08-20T11:29:16;98320.72;;;29.68
61977;BMP280;45905;50.570;10.428;2023-08-20T11:31:49;98319.13;;;29.81
61977;BMP280;45905;50.570;10.428;2023-08-20T11:34:19;98325.88;;;29.97
61977;BMP280;45905;50.570;10.428;2023-08-20T11:36:46;98316.97;;;30.03
61977;BMP280;45905;50.570;10.428;2023-08-20T11:39:13;98316.94;;;30.12
61977;BMP280;45905;50.570;10.428;2023-08-20T11:41:41;98313.50;;;30.27
61977;BMP280;45905;50.570;10.428;2023-08-20T11:44:09;98316.56;;;30.38
61977;BMP280;45905;50.570;10.428;2023-08-20T11:46:44;98315.16;;;30.60
61977;BMP280;45905;50.570;10.428;2023-08-20T11:49:12;98309.88;;;30.70
61977;BMP280;45905;50.570;10.428;2023-08-20T11:51:43;98315.28;;;30.83
61977;BMP280;45905;50.570;10.428;2023-08-20T11:54:17;98310.75;;;30.98
61977;BMP280;45905;50.570;10.428;2023-08-20T11:56:47;98309.59;;;31.09
61977;BMP280;45905;50.570;10.428;2023-08-20T11:59:18;98310.63;;;31.13
61977;BMP280;45905;50.570;10.428;2023-08-20T12:02:00;98311.16;;;31.15
61977;BMP280;45905;50.570;10.428;2023-08-20T12:04:30;98309.59;;;31.14
61977;BMP280;45905;50.570;10.428;2023-08-20T12:07:14;98303.03;;;31.16
61977;BMP280;45905;50.570;10.428;2023-08-20T12:09:42;98305.66;;;31.16
61977;BMP280;45905;50.570;10.428;2023-08-20T12:12:09;98304.88;;;31.16
61977;BMP280;45905;50.570;10.428;2023-08-20T12:14:37;98303.25;;;31.20
61977;BMP280;45905;50.570;10.428;2023-08-20T12:17:04;98288.09;;;31.17
61977;BMP280;45905;50.570;10.428;2023-08-20T12:19:31;98293.81;;;31.19
61977;BMP280;45905;50.570;10.428;2023-08-20T12:21:59;98290.66;;;31.22
61977;BMP280;45905;50.570;10.428;2023-08-20T12:24:26;98289.03;;;31.30
61977;BMP280;45905;50.570;10.428;2023-08-20T12:26:53;98290.53;;;31.36
61977;BMP280;45905;50.570;10.428;2023-08-20T12:29:21;98285.84;;;31.33
61977;BMP280;45905;50.570;10.428;2023-08-20T12:31:48;98286.34;;;31.35
61977;BMP280;45905;50.570;10.428;2023-08-20T12:34:15;98288.69;;;31.37
61977;BMP280;45905;50.570;10.428;2023-08-20T12:36:42;98287.09;;;31.41
61977;BMP280;45905;50.570;10.428;2023-08-20T12:39:10;98290.47;;;31.46
61977;BMP280;45905;50.570;10.428;2023-08-20T12:41:37;98283.34;;;31.51
61977;BMP280;45905;50.570;10.428;2023-08-20T12:44:05;98273.84;;;31.60
61977;BMP280;45905;50.570;10.428;2023-08-20T12:46:33;98275.84;;;31.68
61977;BMP280;45905;50.570;10.428;2023-08-20T12:49:00;98279.09;;;31.78
61977;BMP280;45905;50.570;10.428;2023-08-20T12:51:27;98277.94;;;31.94
61977;BMP280;45905;50.570;10.428;2023-08-20T12:53:55;98274.56;;;32.11
61977;BMP280;45905;50.570;10.428;2023-08-20T12:56:22;98264.22;;;32.20
61977;BMP280;45905;50.570;10.428;2023-08-20T12:58:49;98265.34;;;32.32
61977;BMP280;45905;50.570;10.428;2023-08-20T13:01:16;98267.91;;;32.37
61977;BMP280;45905;50.570;10.428;2023-08-20T13:03:46;98261.34;;;32.39
61977;BMP280;45905;50.570;10.428;2023-08-20T13:06:15;98255.88;;;32.36
61977;BMP280;45905;50.570;10.428;2023-08-20T13:08:43;98249.47;;;32.41
61977;BMP280;45905;50.570;10.428;2023-08-20T13:11:16;98250.81;;;32.44
61977;BMP280;45905;50.570;10.428;2023-08-20T13:13:44;98258.09;;;32.47
61977;BMP280;45905;50.570;10.428;2023-08-20T13:16:12;98250.06;;;32.57
61977;BMP280;45905;50.570;10.428;2023-08-20T13:18:39;98256.09;;;32.57
61977;BMP280;45905;50.570;10.428;2023-08-20T13:21:07;98254.84;;;32.55
61977;BMP280;45905;50.570;10.428;2023-08-20T13:23:35;98246.97;;;32.55
61977;BMP280;45905;50.570;10.428;2023-08-20T13:26:02;98245.41;;;32.54
61977;BMP280;45905;50.570;10.428;2023-08-20T13:28:31;98248.81;;;32.54
61977;BMP280;45905;50.570;10.428;2023-08-20T13:30:58;98249.38;;;32.51
61977;BMP280;45905;50.570;10.428;2023-08-20T13:33:25;98240.56;;;32.42
61977;BMP280;45905;50.570;10.428;2023-08-20T13:35:53;98245.38;;;32.36
61977;BMP280;45905;50.570;10.428;2023-08-20T13:38:20;98249.94;;;32.30
61977;BMP280;45905;50.570;10.428;2023-08-20T13:40:49;98249.47;;;32.23
61977;BMP280;45905;50.570;10.428;2023-08-20T13:43:16;98243.03;;;32.16
61977;BMP280;45905;50.570;10.428;2023-08-20T13:45:44;98244.66;;;32.12
61977;BMP280;45905;50.570;10.428;2023-08-20T13:48:11;98243.09;;;32.11
61977;BMP280;45905;50.570;10.428;2023-08-20T13:50:38;98231.56;;;32.12
61977;BMP280;45905;50.570;10.428;2023-08-20T13:53:05;98236.50;;;32.14
61977;BMP280;45905;50.570;10.428;2023-08-20T13:55:32;98238.28;;;32.18
61977;BMP280;45905;50.570;10.428;2023-08-20T13:58:00;98241.06;;;32.26
61977;BMP280;45905;50.570;10.428;2023-08-20T14:00:27;98240.13;;;32.36
61977;BMP280;45905;50.570;10.428;2023-08-20T14:02:54;98241.09;;;32.44
61977;BMP280;45905;50.570;10.428;2023-08-20T14:05:21;98234.13;;;32.53
61977;BMP280;45905;50.570;10.428;2023-08-20T14:07:48;98233.84;;;32.55
61977;BMP280;45905;50.570;10.428;2023-08-20T14:10:16;98235.97;;;32.53
61977;BMP280;45905;50.570;10.428;2023-08-20T14:12:43;98234.97;;;32.49
61977;BMP280;45905;50.570;10.428;2023-08-20T14:15:10;98242.66;;;32.45
61977;BMP280;45905;50.570;10.428;2023-08-20T14:17:38;98242.69;;;32.40
61977;BMP280;45905;50.570;10.428;2023-08-20T14:20:06;98239.59;;;32.39